Time;durP1;ratioP1;P1;durP2;ratioP2;P2;SDS_P1;SDS_P2;PMS_P1;PMS_P2;Temp;Humidity;BMP_temperature;BMP_pressure;BME280_temperature;BME280_humidity;BME280_pressure;Samples;Min_cycle;Max_cycle;Signal;HPM_P1;HPM_P2
2021/12/28 00:00:16;;;;;;;9.00;6.25;;;;;;;15.56;68.35;95905.47;5072887;28;20374;-32
2021/12/28 00:02:45;;;;;;;10.07;6.05;;;;;;;15.51;68.74;95909.56;5072622;28;20021;-33
2021/12/28 00:05:12;;;;;;;7.15;5.75;;;;;;;15.59;68.27;95905.25;5072608;28;20521;-33
2021/12/28 00:07:38;;;;;;;10.02;5.65;;;;;;;15.57;68.22;95901.53;5072854;28;20111;-32
2021/12/28 00:10:06;;;;;;;9.20;5.47;;;;;;;15.60;68.27;95906.03;5072829;28;20487;-32
2021/12/28 00:12:34;;;;;;;7.75;5.75;;;;;;;15.58;68.14;95900.28;5072801;28;20458;-32
2021/12/28 00:15:06;;;;;;;8.63;5.88;;;;;;;15.55;68.19;95906.69;5073003;28;20108;-32
2021/12/28 00:20:18;;;;;;;6.18;5.30;;;;;;;15.56;68.32;95900.00;5074826;28;20438;-32
2021/12/28 00:22:44;;;;;;;9.02;5.13;;;;;;;15.54;68.11;95902.44;5076360;28;20035;-32
2021/12/28 00:25:11;;;;;;;8.45;5.30;;;;;;;15.53;68.19;95900.91;5076483;28;20111;-32
2021/12/28 00:27:37;;;;;;;7.75;5.35;;;;;;;15.54;68.10;95903.19;5076352;28;20025;-32
2021/12/28 00:30:04;;;;;;;7.93;5.28;;;;;;;15.52;68.25;95907.59;5076342;28;20040;-32
2021/12/28 00:32:30;;;;;;;8.90;5.38;;;;;;;15.54;68.08;95907.88;5076177;28;20024;-32
2021/12/28 00:34:55;;;;;;;8.90;5.53;;;;;;;15.56;68.00;95908.97;5076520;28;20470;-32
2021/12/28 00:37:21;;;;;;;8.35;5.32;;;;;;;15.59;67.80;95907.25;5076093;28;20028;-33
2021/12/28 00:39:46;;;;;;;7.18;4.88;;;;;;;15.54;67.80;95896.97;5076091;28;20082;-32
2021/12/28 00:42:13;;;;;;;6.05;4.47;;;;;;;15.53;68.02;95909.13;5076097;28;20036;-32
2021/12/28 00:44:39;;;;;;;8.60;5.30;;;;;;;15.51;67.91;95900.63;5076201;28;20059;-32
2021/12/28 00:47:04;;;;;;;6.97;4.55;;;;;;;15.51;67.77;95906.84;5076041;28;20024;-32
2021/12/28 00:49:30;;;;;;;9.57;4.88;;;;;;;15.51;67.94;95917.03;5075870;28;20024;-33
2021/12/28 00:51:58;;;;;;;6.40;4.45;;;;;;;15.47;67.84;95914.47;5075681;28;20045;-32
2021/12/28 00:54:23;;;;;;;6.50;4.15;;;;;;;15.50;67.90;95920.97;5075758;28;20062;-32
2021/12/28 00:56:49;;;;;;;6.13;4.10;;;;;;;15.51;67.77;95922.50;5074757;28;20025;-32
2021/12/28 00:59:14;;;;;;;5.88;4.38;;;;;;;15.54;67.67;95921.56;5075656;28;20493;-33
2021/12/28 01:01:40;;;;;;;5.53;4.05;;;;;;;15.55;67.60;95920.38;5075599;28;20030;-32
2021/12/28 01:04:06;;;;;;;4.80;3.90;;;;;;;15.49;67.86;95922.97;5075552;28;20100;-33
2021/12/28 01:06:31;;;;;;;6.25;3.97;;;;;;;15.53;67.55;95925.50;5075723;28;20024;-32
2021/12/28 01:08:57;;;;;;;6.18;4.18;;;;;;;15.50;67.81;95920.97;5075640;28;20023;-32
2021/12/28 01:11:22;;;;;;;5.82;4.03;;;;;;;15.49;67.73;95924.94;5075737;28;20029;-33
2021/12/28 01:13:48;;;;;;;5.28;3.88;;;;;;;15.54;67.62;95916.84;5075536;28;20033;-33
2021/12/28 01:16:14;;;;;;;7.40;4.45;;;;;;;15.49;67.88;95922.97;5075344;28;20025;-33
2021/12/28 01:18:41;;;;;;;4.95;3.47;;;;;;;15.55;67.62;95923.09;5075417;28;20028;-32
2021/12/28 01:21:07;;;;;;;5.13;3.70;;;;;;;15.48;67.85;95928.88;5075350;28;20020;-33
2021/12/28 01:23:32;;;;;;;5.88;4.18;;;;;;;15.42;67.94;95932.28;5075267;28;20095;-32
2021/12/28 01:25:58;;;;;;;8.90;3.95;;;;;;;15.50;67.59;95926.44;5075310;28;20475;-33
2021/12/28 01:28:23;;;;;;;5.20;3.35;;;;;;;15.53;67.46;95930.97;5075228;28;20021;-32
2021/12/28 01:30:49;;;;;;;5.72;3.75;;;;;;;15.51;67.42;95927.97;5074564;28;20387;-32
2021/12/28 01:33:15;;;;;;;5.25;3.60;;;;;;;15.51;67.51;95930.69;5074758;28;20065;-32
2021/12/28 01:35:40;;;;;;;4.00;3.22;;;;;;;15.53;67.49;95939.94;5074992;28;20037;-33
2021/12/28 01:38:07;;;;;;;6.28;3.72;;;;;;;15.49;67.80;95946.78;5075181;28;20028;-33
2021/12/28 01:40:37;;;;;;;4.70;3.70;;;;;;;15.45;67.60;95947.00;5074958;28;20043;-33
2021/12/28 01:43:10;;;;;;;4.47;3.47;;;;;;;15.40;67.56;95948.41;5074869;28;20024;-33
2021/12/28 01:45:44;;;;;;;;;;;;;;;15.39;67.74;95949.63;5075312;28;20470;-32
2021/12/28 01:48:13;;;;;;;5.07;3.70;;;;;;;15.45;67.43;95950.47;5074899;28;19908;-34
2021/12/28 01:50:39;;;;;;;6.07;3.38;;;;;;;15.42;67.54;95945.97;5074626;28;20070;-32
2021/12/28 01:53:06;;;;;;;4.88;3.40;;;;;;;15.47;67.47;95944.53;5074808;28;20466;-33
2021/12/28 01:55:34;;;;;;;4.53;3.47;;;;;;;15.44;67.38;95953.69;5074626;28;20032;-32
2021/12/28 01:57:59;;;;;;;5.22;3.72;;;;;;;15.43;67.44;95942.00;5073356;28;20029;-32
2021/12/28 02:00:26;;;;;;;4.50;3.30;;;;;;;15.42;67.62;95947.94;5074755;28;20025;-33
2021/12/28 02:02:52;;;;;;;5.28;3.20;;;;;;;15.43;67.36;95942.00;5074352;28;20025;-32
2021/12/28 02:05:18;;;;;;;6.10;3.22;;;;;;;15.40;67.42;95940.19;5074545;28;20141;-32
2021/12/28 02:07:43;;;;;;;5.57;3.30;;;;;;;15.39;67.72;95935.97;5074449;28;20042;-33
2021/12/28 02:10:09;;;;;;;4.93;3.17;;;;;;;15.40;67.44;95929.28;5074423;28;20030;-32
2021/12/28 02:12:35;;;;;;;6.07;3.13;;;;;;;15.39;67.29;95937.94;5074436;28;20043;-32
2021/12/28 02:15:06;;;;;;;4.88;3.47;;;;;;;15.37;67.51;95934.91;5074500;28;20385;-33
2021/12/28 02:17:33;;;;;;;5.60;3.35;;;;;;;15.44;67.27;95938.03;5074321;28;20082;-33
2021/12/28 02:20:07;;;;;;;3.38;2.72;;;;;;;15.37;67.36;95938.41;5074237;28;20021;-33
2021/12/28 02:22:33;;;;;;;4.32;2.80;;;;;;;15.35;67.53;95938.13;5074191;28;20066;-33
2021/12/28 02:24:59;;;;;;;3.60;2.70;;;;;;;15.41;67.31;95935.50;5074256;28;20028;-35
2021/12/28 02:27:28;;;;;;;3.38;2.90;;;;;;;15.38;67.12;95942.66;5073985;28;20043;-34
2021/12/28 02:29:53;;;;;;;3.95;2.83;;;;;;;15.41;67.28;95941.72;5073977;28;20029;-33
2021/12/28 02:32:19;;;;;;;3.40;2.58;;;;;;;15.38;67.33;95950.84;5073891;28;20074;-32
2021/12/28 02:34:46;;;;;;;3.30;2.60;;;;;;;15.35;67.38;95957.25;5073830;28;20481;-32
2021/12/28 02:37:11;;;;;;;4.45;2.60;;;;;;;15.29;67.54;95952.91;5073875;28;20029;-33
2021/12/28 02:39:37;;;;;;;3.33;2.83;;;;;;;15.34;67.51;95957.69;5073993;28;20025;-33
2021/12/28 02:42:02;;;;;;;3.67;2.63;;;;;;;15.35;67.20;95951.78;5073773;28;20033;-32
2021/12/28 02:44:28;;;;;;;3.83;2.58;;;;;;;15.37;67.25;95949.34;5073512;28;20031;-33
2021/12/28 02:46:54;;;;;;;4.93;3.13;;;;;;;15.34;67.21;95955.72;5073666;28;20028;-32
2021/12/28 02:49:19;;;;;;;4.32;2.67;;;;;;;15.33;67.19;95965.16;5073713;28;20028;-33
2021/12/28 02:51:45;;;;;;;4.15;2.67;;;;;;;15.26;67.65;95960.06;5073547;28;20452;-33
2021/12/28 02:54:10;;;;;;;4.15;2.42;;;;;;;15.24;67.63;95976.16;5073672;28;20027;-32
2021/12/28 02:56:35;;;;;;;5.15;2.63;;;;;;;15.28;67.54;95974.00;5073510;28;20513;-33
2021/12/28 02:59:02;;;;;;;4.70;2.63;;;;;;;15.31;67.25;95966.84;5073515;28;20024;-33
2021/12/28 03:01:29;;;;;;;5.38;2.90;;;;;;;15.22;67.61;95975.09;5073427;28;20086;-32
2021/12/28 03:04:03;;;;;;;3.97;2.88;;;;;;;15.22;67.68;95981.31;5073578;28;20032;-33
2021/12/28 03:06:28;;;;;;;3.55;2.45;;;;;;;15.30;67.29;95987.97;5073709;28;20031;-32
2021/12/28 03:08:56;;;;;;;5.05;2.88;;;;;;;15.28;67.24;95968.53;5073397;28;20017;-33
2021/12/28 03:11:24;;;;;;;3.83;2.75;;;;;;;15.25;67.21;95968.72;5073647;28;20047;-33
2021/12/28 03:13:52;;;;;;;4.40;2.75;;;;;;;15.29;67.04;95969.28;5073145;28;20024;-33
2021/12/28 03:16:18;;;;;;;4.35;2.80;;;;;;;15.28;67.27;95971.28;5073404;28;20390;-32
2021/12/28 03:18:45;;;;;;;3.35;2.40;;;;;;;15.22;67.33;95967.66;5073436;28;20020;-32
2021/12/28 03:21:13;;;;;;;3.47;2.58;;;;;;;15.19;67.51;95974.09;5073270;28;20486;-33
2021/12/28 03:23:40;;;;;;;5.32;2.90;;;;;;;15.20;67.52;95964.66;5073259;28;20025;-34
2021/12/28 03:26:07;;;;;;;3.58;2.80;;;;;;;15.21;67.48;95951.75;5073136;28;20029;-33
2021/12/28 03:28:38;;;;;;;3.00;2.60;;;;;;;15.21;67.10;95947.03;5073365;28;20035;-33
2021/12/28 03:31:06;;;;;;;3.75;2.50;;;;;;;15.24;67.03;95946.09;5073072;28;20020;-32
2021/12/28 03:33:36;;;;;;;4.53;2.53;;;;;;;15.24;67.09;95946.09;5073200;28;20052;-32
2021/12/28 03:36:02;;;;;;;4.40;2.90;;;;;;;15.23;67.02;95939.13;5073289;28;20035;-32
2021/12/28 03:38:28;;;;;;;5.35;2.75;;;;;;;15.21;67.00;95949.00;5073133;28;20035;-33
2021/12/28 03:40:54;;;;;;;5.45;2.40;;;;;;;15.14;67.22;95955.59;5071769;28;20119;-32
2021/12/28 03:43:21;;;;;;;3.67;2.50;;;;;;;15.11;67.36;95959.25;5073036;28;20031;-32
2021/12/28 03:45:47;;;;;;;3.28;2.20;;;;;;;15.15;67.21;95953.63;5073011;28;20094;-32
2021/12/28 03:48:13;;;;;;;4.07;2.58;;;;;;;15.08;67.42;95958.22;5073075;28;20028;-32
2021/12/28 03:50:39;;;;;;;5.38;2.67;;;;;;;15.15;66.97;95954.38;5072733;28;20048;-33
2021/12/28 03:53:06;;;;;;;3.72;2.38;;;;;;;15.22;66.72;95953.25;5073267;28;20021;-32
2021/12/28 03:55:32;;;;;;;4.00;2.60;;;;;;;15.18;66.89;95958.91;5075528;28;20039;-32
2021/12/28 03:57:59;;;;;;;3.60;2.70;;;;;;;15.15;66.91;95965.31;5076960;28;20028;-32
2021/12/28 04:00:27;;;;;;;4.50;2.80;;;;;;;15.15;66.90;95964.56;5076836;28;20028;-32
2021/12/28 04:02:53;;;;;;;4.88;2.75;;;;;;;15.17;66.79;95979.25;5076676;28;20039;-33
2021/12/28 04:05:19;;;;;;;4.63;2.50;;;;;;;15.14;66.84;95977.44;5077130;28;20107;-33
2021/12/28 04:07:46;;;;;;;4.40;2.40;;;;;;;15.20;66.49;95997.44;5076479;28;20036;-33
2021/12/28 04:10:15;;;;;;;3.53;2.60;;;;;;;15.10;66.82;95993.25;5076686;28;20097;-32
2021/12/28 04:12:41;;;;;;;4.75;2.33;;;;;;;15.16;66.66;95996.09;5076646;28;20101;-32
2021/12/28 04:15:09;;;;;;;3.13;2.45;;;;;;;15.15;66.41;95998.09;5076566;28;20066;-33
2021/12/28 04:17:37;;;;;;;4.05;2.47;;;;;;;15.16;66.24;96001.56;5076492;28;20392;-33
2021/12/28 04:20:07;;;;;;;2.60;2.10;;;;;;;15.15;66.35;95998.09;5076590;28;20393;-32
2021/12/28 04:22:32;;;;;;;3.85;2.22;;;;;;;15.08;66.68;96012.84;5076602;28;20140;-32
2021/12/28 04:24:58;;;;;;;3.03;2.08;;;;;;;15.06;66.65;96011.81;5076510;28;20115;-33
2021/12/28 04:27:23;;;;;;;2.95;2.05;;;;;;;15.04;66.45;96019.72;5076481;28;20478;-33
2021/12/28 04:29:49;;;;;;;4.80;2.20;;;;;;;15.11;66.40;96013.88;5076398;28;20478;-32
2021/12/28 04:32:14;;;;;;;3.70;2.10;;;;;;;15.10;66.16;96026.03;5076190;28;20441;-33
2021/12/28 04:34:40;;;;;;;3.13;2.15;;;;;;;15.12;66.10;96029.06;5076348;28;20096;-33
2021/12/28 04:37:05;;;;;;;3.08;2.40;;;;;;;15.09;66.12;96022.53;5076177;28;20531;-32
2021/12/28 04:39:31;;;;;;;2.90;2.20;;;;;;;15.11;66.13;96027.53;5076046;28;20521;-33
2021/12/28 04:41:56;;;;;;;3.75;2.20;;;;;;;15.11;65.91;96030.28;5076277;28;20025;-32
2021/12/28 04:44:25;;;;;;;3.17;1.90;;;;;;;15.14;65.87;96031.31;5076154;28;20111;-33
2021/12/28 04:46:52;;;;;;;3.75;1.80;;;;;;;15.14;65.95;96034.81;5076165;28;20024;-33
2021/12/28 04:49:19;;;;;;;2.97;1.95;;;;;;;15.05;66.24;96034.88;5076233;28;20100;-32
2021/12/28 04:51:45;;;;;;;3.08;2.15;;;;;;;15.03;66.32;96029.88;5075706;28;20052;-32
2021/12/28 04:54:12;;;;;;;3.70;1.80;;;;;;;15.08;66.29;96020.28;5075895;28;20523;-32
2021/12/28 04:56:39;;;;;;;2.25;1.80;;;;;;;15.10;66.06;96024.06;5075972;28;20429;-32
2021/12/28 04:59:05;;;;;;;3.05;2.00;;;;;;;15.04;66.26;96031.38;5075924;28;20437;-33
2021/12/28 05:01:31;;;;;;;3.33;1.70;;;;;;;15.04;66.44;96041.56;5075778;28;20056;-33
2021/12/28 05:03:56;;;;;;;3.17;2.03;;;;;;;15.00;66.11;96032.78;5075690;28;20035;-32
2021/12/28 05:06:22;;;;;;;4.30;2.10;;;;;;;14.99;66.33;96047.66;5073989;28;20031;-32
2021/12/28 05:08:47;;;;;;;2.70;2.20;;;;;;;14.91;66.77;96049.97;5075911;28;20027;-32
2021/12/28 05:11:14;;;;;;;3.03;1.95;;;;;;;14.85;66.63;96053.78;5075602;28;20021;-32
2021/12/28 05:13:40;;;;;;;3.15;2.20;;;;;;;14.98;65.96;96066.00;5075724;28;20047;-34
2021/12/28 05:16:06;;;;;;;5.07;3.17;;;;;;;14.64;67.13;96080.88;5075628;28;20024;-32
2021/12/28 05:18:32;;;;;;;2.60;2.10;;;;;;;14.71;66.90;96086.00;5075537;28;20543;-33
2021/12/28 05:20:57;;;;;;;2.80;2.03;;;;;;;14.82;66.53;96092.94;5075514;28;20099;-32
2021/12/28 05:23:23;;;;;;;3.50;2.20;;;;;;;14.63;67.18;96103.16;5075375;28;20055;-32
2021/12/28 05:25:48;;;;;;;3.75;2.50;;;;;;;14.58;67.02;96101.84;5075293;28;20407;-33
2021/12/28 05:28:14;;;;;;;3.13;2.13;;;;;;;14.89;66.22;96098.81;5075267;28;20032;-33
2021/12/28 05:30:40;;;;;;;3.58;2.45;;;;;;;14.70;66.39;96100.88;5075233;28;20025;-33
2021/12/28 05:33:06;;;;;;;4.00;2.72;;;;;;;14.78;66.59;96101.31;5075227;28;20021;-32
2021/12/28 05:35:31;;;;;;;2.38;1.98;;;;;;;14.77;66.47;96112.69;5075040;28;20020;-33
2021/12/28 05:37:57;;;;;;;3.05;2.08;;;;;;;14.88;66.14;96110.19;5075326;28;20028;-33
2021/12/28 05:40:22;;;;;;;3.08;2.28;;;;;;;14.69;66.03;96115.75;5075263;28;20378;-32
2021/12/28 05:42:48;;;;;;;3.80;2.28;;;;;;;14.48;67.42;96111.25;5074789;28;20049;-33
2021/12/28 05:45:14;;;;;;;4.88;2.47;;;;;;;14.06;67.06;96110.41;5075042;28;20037;-32
2021/12/28 05:47:40;;;;;;;2.67;1.90;;;;;;;14.37;66.11;96110.94;5075044;28;20028;-33
2021/12/28 05:50:08;;;;;;;3.88;2.35;;;;;;;14.36;67.54;96109.44;5074598;28;20064;-32
2021/12/28 05:52:34;;;;;;;3.40;2.08;;;;;;;14.51;67.19;96099.41;5074786;28;20030;-33
2021/12/28 05:54:59;;;;;;;3.92;2.10;;;;;;;14.53;67.04;96101.69;5074872;28;20021;-32
2021/12/28 05:57:25;;;;;;;2.67;1.50;;;;;;;14.53;67.06;96107.91;5074643;28;20028;-33
2021/12/28 05:59:51;;;;;;;2.38;1.90;;;;;;;14.57;66.93;96103.06;5074932;28;20512;-33
2021/12/28 06:02:16;;;;;;;2.40;1.65;;;;;;;14.72;66.30;96097.66;5074822;28;20043;-32
2021/12/28 06:04:42;;;;;;;2.85;1.77;;;;;;;14.73;66.05;96099.94;5074468;28;20036;-32
2021/12/28 06:07:07;;;;;;;2.83;1.70;;;;;;;14.79;65.66;96097.34;5074557;28;20024;-33
2021/12/28 06:09:32;;;;;;;3.60;1.50;;;;;;;14.83;65.62;96103.41;5074517;28;20495;-33
2021/12/28 06:11:58;;;;;;;3.28;1.60;;;;;;;14.84;65.17;96102.16;5074644;28;20043;-32
2021/12/28 06:14:23;;;;;;;2.05;1.40;;;;;;;14.77;65.84;96093.56;5074512;28;20027;-33
2021/12/28 06:16:49;;;;;;;1.70;1.40;;;;;;;14.82;65.46;96090.97;5073885;28;20032;-32
2021/12/28 06:19:14;;;;;;;2.25;1.38;;;;;;;14.87;65.44;96103.97;5073909;28;20029;-32
2021/12/28 06:21:40;;;;;;;1.92;1.33;;;;;;;14.84;65.54;96104.13;5074384;28;20020;-33
2021/12/28 06:24:06;;;;;;;2.15;1.42;;;;;;;14.86;65.59;96090.78;5074396;28;20029;-33
2021/12/28 06:26:33;;;;;;;3.00;1.50;;;;;;;14.92;65.26;96097.91;5074163;28;20025;-32
2021/12/28 06:29:00;;;;;;;4.13;1.73;;;;;;;14.79;65.49;96093.88;5074132;28;20029;-33
2021/12/28 06:31:28;;;;;;;1.73;1.48;;;;;;;14.82;65.83;96101.13;5074019;28;20024;-33
2021/12/28 06:33:55;;;;;;;1.80;1.30;;;;;;;14.72;66.04;96100.41;5074236;28;20029;-32
2021/12/28 06:36:21;;;;;;;2.55;1.33;;;;;;;14.79;65.87;96096.59;5073925;28;20024;-33
2021/12/28 06:38:46;;;;;;;1.90;1.20;;;;;;;14.85;65.49;96100.97;5073946;28;20024;-33
2021/12/28 06:41:12;;;;;;;2.28;1.38;;;;;;;14.84;65.51;96109.59;5072548;28;20033;-33
2021/12/28 06:43:37;;;;;;;2.38;1.20;;;;;;;14.80;65.72;96109.03;5072498;28;20462;-33
2021/12/28 06:46:02;;;;;;;2.92;1.33;;;;;;;14.84;65.60;96110.38;5073643;28;20035;-33
2021/12/28 06:48:28;;;;;;;2.05;1.40;;;;;;;14.91;65.28;96114.75;5073524;28;20024;-32
2021/12/28 06:50:53;;;;;;;2.90;1.60;;;;;;;14.82;65.43;96117.53;5078443;28;20036;-32
2021/12/28 06:53:19;;;;;;;2.20;1.30;;;;;;;14.80;65.54;96115.25;5091908;28;20016;-33
2021/12/28 06:55:45;;;;;;;2.40;1.25;;;;;;;14.81;65.40;96124.19;5092028;28;20024;-32
2021/12/28 06:58:10;;;;;;;1.80;1.10;;;;;;;14.89;64.93;96128.09;5091821;28;20020;-32
2021/12/28 07:00:37;;;;;;;2.80;1.30;;;;;;;14.86;65.10;96137.19;5091559;28;20031;-32
2021/12/28 07:03:04;;;;;;;2.25;1.30;;;;;;;14.82;65.25;96126.47;5091624;28;20038;-32
2021/12/28 07:05:30;;;;;;;2.33;1.02;;;;;;;14.84;65.05;96129.47;5091711;28;20211;-32
2021/12/28 07:07:55;;;;;;;1.42;1.17;;;;;;;14.82;65.04;96125.72;5091231;28;20031;-33
2021/12/28 07:10:21;;;;;;;2.05;1.30;;;;;;;14.77;65.45;96138.00;5089821;28;20398;-33
2021/12/28 07:12:50;;;;;;;2.55;1.20;;;;;;;14.83;64.96;96141.63;5090837;28;20382;-34
2021/12/28 07:15:17;;;;;;;2.15;1.30;;;;;;;14.86;64.75;96129.00;5091255;28;20028;-32
2021/12/28 07:17:43;;;;;;;1.52;1.17;;;;;;;14.80;65.21;96148.00;5091263;28;20031;-32
2021/12/28 07:20:09;;;;;;;1.80;1.20;;;;;;;14.82;64.99;96148.31;5091270;28;20425;-34
2021/12/28 07:22:35;;;;;;;2.65;1.20;;;;;;;14.84;65.04;96137.66;5091287;28;20062;-33
2021/12/28 07:25:01;;;;;;;2.30;2.05;;;;;;;14.78;65.28;96136.78;5091268;28;20028;-34
2021/12/28 07:27:26;;;;;;;1.75;1.15;;;;;;;14.80;65.25;96131.63;5089688;28;20038;-34
2021/12/28 07:29:52;;;;;;;1.23;0.85;;;;;;;14.78;65.32;96125.13;5091286;28;20024;-32
2021/12/28 07:32:17;;;;;;;2.55;1.05;;;;;;;14.82;65.02;96123.75;5090905;28;20036;-32
2021/12/28 07:34:43;;;;;;;2.33;1.20;;;;;;;14.86;65.14;96129.00;5091393;28;20472;-33
2021/12/28 07:37:08;;;;;;;1.88;0.98;;;;;;;14.73;65.38;96131.94;5091393;28;20383;-33
2021/12/28 07:39:34;;;;;;;1.40;1.00;;;;;;;14.76;65.25;96124.81;5091144;28;20036;-32
2021/12/28 07:41:59;;;;;;;1.92;1.05;;;;;;;14.84;65.03;96126.75;5091503;28;20081;-33
2021/12/28 07:44:25;;;;;;;1.85;1.23;;;;;;;14.91;64.96;96125.66;5090936;28;20038;-33
2021/12/28 07:46:50;;;;;;;1.67;1.23;;;;;;;14.87;65.06;96136.00;5090708;28;20480;-33
2021/12/28 07:49:16;;;;;;;2.20;1.20;;;;;;;14.84;65.00;96134.16;5089956;28;20024;-32
2021/12/28 07:51:41;;;;;;;1.70;1.35;;;;;;;14.87;64.95;96130.53;5090926;28;20055;-34
2021/12/28 07:54:07;;;;;;;1.88;1.13;;;;;;;14.80;65.23;96128.13;5090967;28;20538;-32
2021/12/28 07:56:32;;;;;;;3.08;1.35;;;;;;;14.84;65.07;96134.94;5091251;28;20051;-32
2021/12/28 07:58:58;;;;;;;2.38;1.35;;;;;;;14.84;65.04;96123.25;5089666;28;20085;-32
2021/12/28 08:01:23;;;;;;;2.15;1.63;;;;;;;14.88;65.17;96132.03;5091542;28;20024;-32
2021/12/28 08:03:49;;;;;;;1.50;1.20;;;;;;;14.89;64.90;96133.56;5090924;28;20032;-33
2021/12/28 08:06:14;;;;;;;2.13;1.17;;;;;;;14.88;65.31;96143.72;5091167;28;20035;-32
2021/12/28 08:08:40;;;;;;;1.92;1.15;;;;;;;14.88;65.06;96143.72;5089547;28;20156;-32
2021/12/28 08:11:05;;;;;;;1.88;1.40;;;;;;;14.88;64.94;96132.81;5091147;28;20039;-33
2021/12/28 08:13:31;;;;;;;2.05;1.40;;;;;;;14.72;65.70;96141.34;5091013;28;20431;-32
2021/12/28 08:15:56;;;;;;;2.00;1.50;;;;;;;14.85;65.30;96143.88;5090796;28;20070;-33
2021/12/28 08:18:23;;;;;;;3.97;1.73;;;;;;;14.88;65.00;96142.97;5091141;28;20466;-33
2021/12/28 08:20:48;;;;;;;3.03;1.67;;;;;;;14.89;65.04;96147.22;5091078;28;20032;-32
2021/12/28 08:23:14;;;;;;;3.33;1.85;;;;;;;14.78;65.15;96149.69;5090942;28;20079;-32
2021/12/28 08:25:40;;;;;;;4.05;2.80;;;;;;;14.29;65.50;96154.16;5090771;28;20035;-31
2021/12/28 08:28:06;;;;;;;3.95;2.92;;;;;;;14.22;65.92;96168.09;5090071;28;20058;-32
2021/12/28 08:30:36;;;;;;;6.93;4.00;;;;;;;14.41;64.65;96170.84;5090857;28;20016;-33
2021/12/28 08:33:06;;;;;;;7.78;3.65;;;;;;;14.62;64.33;96175.34;5090427;28;20500;-32
2021/12/28 08:35:32;;;;;;;5.68;3.60;;;;;;;14.67;64.27;96186.41;5090821;28;20035;-32
2021/12/28 08:37:58;;;;;;;6.53;3.70;;;;;;;14.66;64.55;96184.13;5090588;28;20024;-32
2021/12/28 08:40:24;;;;;;;4.40;3.03;;;;;;;14.70;64.37;96187.47;5091216;28;20047;-32
2021/12/28 08:42:50;;;;;;;4.53;3.38;;;;;;;14.70;64.28;96182.00;5094351;28;20548;-32
2021/12/28 08:45:16;;;;;;;4.32;3.03;;;;;;;14.70;64.44;96180.03;5094411;28;20059;-32
2021/12/28 08:47:42;;;;;;;4.13;3.05;;;;;;;14.74;64.24;96180.63;5094224;28;20122;-32
2021/12/28 08:50:09;;;;;;;4.45;2.90;;;;;;;14.71;64.35;96184.25;5092831;28;20062;-32
2021/12/28 08:52:36;;;;;;;4.13;2.70;;;;;;;14.79;63.78;96178.50;5093326;28;20024;-31
2021/12/28 08:55:04;;;;;;;6.72;3.63;;;;;;;14.74;64.28;96179.88;5093466;28;20027;-32
2021/12/28 08:57:29;;;;;;;4.68;3.08;;;;;;;14.81;64.03;96178.78;5093301;28;20028;-32
2021/12/28 08:59:55;;;;;;;3.60;2.80;;;;;;;14.80;64.09;96182.75;5093427;28;20012;-32
2021/12/28 09:02:20;;;;;;;4.75;3.15;;;;;;;14.78;64.17;96172.28;5093067;28;20462;-32
2021/12/28 09:04:46;;;;;;;3.15;2.58;;;;;;;14.78;64.14;96174.25;5093334;28;20024;-32
2021/12/28 09:07:16;;;;;;;4.32;2.60;;;;;;;14.82;64.23;96175.59;5093463;28;20051;-32
2021/12/28 09:09:43;;;;;;;4.15;2.88;;;;;;;14.82;64.06;96178.34;5092280;28;20052;-32
2021/12/28 09:12:10;;;;;;;4.15;2.38;;;;;;;14.85;64.01;96187.56;5093836;28;20032;-32
2021/12/28 09:14:36;;;;;;;4.07;2.67;;;;;;;14.82;64.21;96181.06;5093596;28;20056;-32
2021/12/28 09:17:03;;;;;;;3.83;2.83;;;;;;;14.81;64.06;96179.56;5093741;28;20112;-32
2021/12/28 09:19:29;;;;;;;4.35;2.88;;;;;;;14.76;64.22;96179.41;5093627;28;20051;-32
2021/12/28 09:21:55;;;;;;;4.43;2.75;;;;;;;14.82;64.13;96180.31;5093657;28;20099;-32
2021/12/28 09:24:21;;;;;;;4.57;2.85;;;;;;;14.80;64.24;96175.31;5093562;28;20027;-32
2021/12/28 09:26:47;;;;;;;2.60;2.20;;;;;;;14.78;64.38;96177.75;5093357;28;20031;-32
2021/12/28 09:29:12;;;;;;;4.40;2.60;;;;;;;14.80;64.24;96164.38;5093523;28;20036;-32
2021/12/28 09:31:38;;;;;;;4.25;2.65;;;;;;;14.79;64.24;96167.56;5093525;28;20058;-33
2021/12/28 09:34:03;;;;;;;4.32;2.55;;;;;;;14.89;63.70;96164.34;5093300;28;20480;-32
2021/12/28 09:36:29;;;;;;;3.97;2.72;;;;;;;14.85;64.01;96177.41;5093446;28;20024;-32
2021/12/28 09:38:55;;;;;;;5.38;3.38;;;;;;;14.88;64.03;96181.19;5092909;28;20551;-32
2021/12/28 09:41:20;;;;;;;6.60;4.30;;;;;;;14.95;63.47;96175.41;5093313;28;20440;-32
2021/12/28 09:43:46;;;;;;;6.85;4.28;;;;;;;14.84;64.10;96180.59;5093093;28;20028;-32
2021/12/28 09:46:11;;;;;;;8.13;5.05;;;;;;;14.84;64.22;96177.84;5093113;28;20512;-32
2021/12/28 09:48:37;;;;;;;7.03;4.57;;;;;;;14.80;64.17;96177.28;5093214;28;20127;-32
2021/12/28 09:51:05;;;;;;;7.03;4.30;;;;;;;14.76;64.18;96169.25;5092551;28;20060;-32
2021/12/28 09:53:30;;;;;;;7.20;4.57;;;;;;;14.79;64.32;96181.97;5103048;28;20016;-32
2021/12/28 09:55:56;;;;;;;6.32;4.30;;;;;;;14.83;64.19;96179.09;5113183;28;20030;-32
2021/12/28 09:58:22;;;;;;;6.38;4.10;;;;;;;14.79;64.15;96181.97;5113439;28;20032;-32
2021/12/28 10:00:47;;;;;;;6.65;3.88;;;;;;;14.87;64.03;96187.88;5113135;28;20024;-32
2021/12/28 10:03:14;;;;;;;4.60;3.60;;;;;;;14.81;64.21;96181.53;5111465;28;20034;-32
2021/12/28 10:05:39;;;;;;;5.78;3.90;;;;;;;14.83;64.10;96179.09;5113235;28;20732;-32
2021/12/28 10:08:06;;;;;;;5.78;3.90;;;;;;;14.84;63.91;96181.34;5113138;28;20103;-32
2021/12/28 10:10:36;;;;;;;5.88;3.67;;;;;;;14.77;64.26;96181.69;5111300;28;20070;-32
2021/12/28 10:13:06;;;;;;;4.38;3.10;;;;;;;14.78;64.29;96176.97;5113188;28;20028;-32
2021/12/28 10:15:39;;;;;;;5.43;2.95;;;;;;;14.81;64.18;96184.25;5112878;28;20684;-32
2021/12/28 10:18:10;;;;;;;5.40;3.35;;;;;;;14.81;63.98;96179.56;5111668;28;20027;-32
2021/12/28 10:20:43;;;;;;;3.97;3.08;;;;;;;14.83;64.08;96184.56;5112926;28;20518;-32
2021/12/28 10:23:11;;;;;;;5.05;2.85;;;;;;;14.86;63.78;96189.06;5113042;28;20019;-32
2021/12/28 10:25:55;;;;;;;4.65;2.90;;;;;;;14.79;64.04;96184.72;5112872;28;20082;-32
2021/12/28 10:28:28;;;;;;;4.53;3.00;;;;;;;14.82;63.90;96181.06;5112771;28;20485;-32
2021/12/28 10:31:00;;;;;;;3.85;2.83;;;;;;;14.80;64.11;96180.78;5112752;28;20031;-33
2021/12/28 10:33:28;;;;;;;4.07;2.75;;;;;;;14.74;64.24;96188.06;5111286;28;20481;-32
2021/12/28 10:35:59;;;;;;;4.43;2.83;;;;;;;14.80;63.94;96186.22;5112577;28;20583;-32
2021/12/28 10:38:31;;;;;;;3.40;2.67;;;;;;;14.81;64.05;96187.75;5112487;28;20019;-32
2021/12/28 10:41:13;;;;;;;3.92;2.75;;;;;;;14.89;63.45;96182.72;5112813;28;20023;-32
2021/12/28 10:43:45;;;;;;;4.88;2.67;;;;;;;14.86;63.80;96184.38;5112518;28;20033;-32
2021/12/28 10:46:14;;;;;;;4.25;2.92;;;;;;;14.87;63.68;96185.13;5099544;28;20032;-32
2021/12/28 10:48:49;;;;;;;4.20;2.60;;;;;;;14.88;63.60;96194.84;5091972;28;20108;-32
2021/12/28 10:51:22;;;;;;;3.30;2.70;;;;;;;14.89;63.66;96188.16;5091140;28;20048;-32
2021/12/28 10:56:26;;;;;;;3.72;2.70;;;;;;;14.90;63.71;96184.22;5092126;28;20069;-32
2021/12/28 10:58:52;;;;;;;4.30;2.47;;;;;;;14.89;63.58;96180.72;5091832;28;20028;-32
2021/12/28 11:01:23;;;;;;;3.72;2.78;;;;;;;14.87;63.75;96180.44;5090336;28;20036;-32
2021/12/28 11:03:52;;;;;;;3.00;2.30;;;;;;;14.90;63.67;96178.75;5091391;28;20024;-32
2021/12/28 11:06:22;;;;;;;3.97;2.90;;;;;;;14.88;63.80;96186.66;5091730;28;20066;-33
2021/12/28 11:08:50;;;;;;;4.47;2.88;;;;;;;14.88;63.82;96183.91;5089867;28;20020;-32
2021/12/28 11:11:19;;;;;;;3.38;2.50;;;;;;;14.84;63.91;96180.59;5091713;28;20028;-32
2021/12/28 11:13:45;;;;;;;3.47;2.45;;;;;;;14.80;63.87;96174.56;5091848;28;20020;-32
2021/12/28 11:16:12;;;;;;;3.17;2.38;;;;;;;14.75;64.27;96189.56;5091367;28;20036;-32
2021/12/28 11:18:43;;;;;;;3.80;2.50;;;;;;;14.76;64.11;96182.13;5091672;28;20158;-32
2021/12/28 11:21:30;;;;;;;3.65;2.20;;;;;;;14.77;64.13;96186.38;5091608;28;20028;-32
2021/12/28 11:24:04;;;;;;;3.13;2.10;;;;;;;14.78;64.25;96172.28;5091331;28;20031;-32
2021/12/28 11:26:51;;;;;;;3.33;2.20;;;;;;;14.80;63.98;96177.28;5091236;28;20019;-32
2021/12/28 11:29:20;;;;;;;4.82;2.58;;;;;;;14.76;64.16;96169.25;5091615;28;20028;-32
2021/12/28 11:31:52;;;;;;;3.33;2.00;;;;;;;14.78;64.23;96177.75;5091000;28;20028;-33
2021/12/28 11:34:23;;;;;;;3.25;1.98;;;;;;;14.74;64.14;96166.97;5091250;28;20377;-32
2021/12/28 11:36:55;;;;;;;4.22;2.38;;;;;;;14.71;64.31;96176.06;5091367;28;20529;-32